createdAt,value
2022-09-15T00:00:05.578Z,7.95
2022-09-15T00:02:32.857Z,5.05
2022-09-15T00:05:00.769Z,5.47
2022-09-15T00:07:27.907Z,7.90
2022-09-15T00:09:55.015Z,5.80
2022-09-15T00:12:22.153Z,5.60
2022-09-15T00:14:49.343Z,6.97
2022-09-15T00:17:16.498Z,9.23
2022-09-15T00:19:43.644Z,6.03
2022-09-15T00:22:10.734Z,6.43
2022-09-15T00:24:37.843Z,5.68
2022-09-15T00:27:05.280Z,10.18
2022-09-15T00:29:32.379Z,7.78
2022-09-15T00:31:59.481Z,10.00
2022-09-15T00:34:26.569Z,10.02
2022-09-15T00:36:53.675Z,7.05
2022-09-15T00:39:20.876Z,6.78
2022-09-15T00:41:47.989Z,7.03
2022-09-15T00:44:17.869Z,8.35
2022-09-15T00:47:03.956Z,7.22
2022-09-15T00:49:35.531Z,5.30
2022-09-15T00:52:21.048Z,7.03
2022-09-15T00:54:48.094Z,6.25
2022-09-15T00:57:23.795Z,7.25
2022-09-15T00:59:51.275Z,6.78
2022-09-15T01:02:18.391Z,11.38
2022-09-15T01:04:45.769Z,5.57
2022-09-15T01:07:15.327Z,4.30
2022-09-15T01:09:48.022Z,6.22
2022-09-15T01:14:42.196Z,6.15
2022-09-15T01:17:12.312Z,4.43
2022-09-15T01:19:55.090Z,5.68
2022-09-15T01:22:42.014Z,6.53
2022-09-15T01:25:17.961Z,4.18
2022-09-15T01:28:03.799Z,5.07
2022-09-15T01:30:35.206Z,5.90
2022-09-15T01:33:08.508Z,4.78
2022-09-15T01:35:41.375Z,4.60
2022-09-15T01:38:34.807Z,7.43
2022-09-15T01:41:20.773Z,4.72
2022-09-15T01:43:56.731Z,6.30
2022-09-15T01:46:25.211Z,7.53
2022-09-15T01:48:54.599Z,4.65
2022-09-15T01:51:22.558Z,3.33
2022-09-15T01:53:51.313Z,4.80
2022-09-15T01:56:18.520Z,6.35
2022-09-15T01:58:45.644Z,6.70
2022-09-15T02:01:31.603Z,7.15
2022-09-15T02:04:01.357Z,4.47
2022-09-15T02:06:36.232Z,5.15
2022-09-15T02:09:07.340Z,6.07
2022-09-15T02:11:35.293Z,4.03
2022-09-15T02:14:03.473Z,4.53
2022-09-15T02:16:33.197Z,5.35
2022-09-15T02:19:09.649Z,4.07
2022-09-15T02:21:47.917Z,10.27
2022-09-15T02:24:19.036Z,4.25
2022-09-15T02:26:47.751Z,8.05
2022-09-15T02:29:16.658Z,7.88
2022-09-15T02:31:45.307Z,5.43
2022-09-15T02:34:26.328Z,4.93
2022-09-15T02:36:53.932Z,4.60
2022-09-15T02:39:23.588Z,4.55
2022-09-15T02:41:50.991Z,4.57
2022-09-15T02:44:18.141Z,6.93
2022-09-15T02:46:45.254Z,5.82
2022-09-15T02:49:14.152Z,5.30
2022-09-15T02:51:41.348Z,5.78
2022-09-15T02:54:08.595Z,6.97
2022-09-15T02:56:35.680Z,6.00
2022-09-15T02:59:02.772Z,5.10
2022-09-15T03:01:34.635Z,6.00
2022-09-15T03:04:02.927Z,9.07
2022-09-15T03:06:34.540Z,6.15
2022-09-15T03:09:02.915Z,7.20
2022-09-15T03:11:30.704Z,4.72
2022-09-15T03:14:01.787Z,5.55
2022-09-15T03:16:29.910Z,6.93
2022-09-15T03:18:59.373Z,7.00
2022-09-15T03:21:27.284Z,8.57
2022-09-15T03:23:54.420Z,8.52
2022-09-15T03:26:21.541Z,6.28
2022-09-15T03:28:48.619Z,9.52
2022-09-15T03:31:15.787Z,7.72
2022-09-15T03:33:42.942Z,7.90
2022-09-15T03:36:10.164Z,6.95
2022-09-15T03:38:37.334Z,6.53
2022-09-15T03:41:08.732Z,11.55
2022-09-15T03:43:36.490Z,7.57
2022-09-15T03:46:04.862Z,8.00
2022-09-15T03:48:33.234Z,8.82
2022-09-15T03:51:00.288Z,11.27
2022-09-15T03:53:27.503Z,10.43
2022-09-15T03:55:54.639Z,8.73
2022-09-15T03:58:21.869Z,9.90
2022-09-15T04:00:49.034Z,8.75
2022-09-15T04:03:16.196Z,8.73
2022-09-15T04:05:43.372Z,8.35
2022-09-15T04:08:12.127Z,9.00
2022-09-15T04:10:39.723Z,8.80
2022-09-15T04:13:06.863Z,10.02
2022-09-15T04:15:34.265Z,12.73
2022-09-15T04:18:01.421Z,10.57
2022-09-15T04:20:28.520Z,8.32
2022-09-15T04:22:55.677Z,10.80
2022-09-15T04:25:22.836Z,7.75
2022-09-15T04:27:49.935Z,7.70
2022-09-15T04:30:17.099Z,9.07
2022-09-15T04:32:44.186Z,6.13
2022-09-15T04:35:11.623Z,2.03
2022-09-15T04:37:39.021Z,3.47
2022-09-15T04:40:06.521Z,1.98
2022-09-15T04:42:33.694Z,3.08
2022-09-15T04:48:25.407Z,1.50
2022-09-15T04:50:52.546Z,3.28
2022-09-15T04:53:19.646Z,1.85
2022-09-15T04:55:46.709Z,2.28
2022-09-15T04:58:14.290Z,2.47
2022-09-15T05:00:45.848Z,1.50
2022-09-15T05:03:14.106Z,1.73
2022-09-15T05:05:41.696Z,2.60
2022-09-15T05:08:08.856Z,4.82
2022-09-15T05:10:38.097Z,3.35
2022-09-15T05:13:05.231Z,3.75
2022-09-15T05:15:32.311Z,6.38
2022-09-15T05:17:59.515Z,5.70
2022-09-15T05:20:26.685Z,6.82
2022-09-15T05:22:53.814Z,6.90
2022-09-15T05:25:20.970Z,6.47
2022-09-15T05:27:48.132Z,8.50
2022-09-15T05:30:36.305Z,9.95
2022-09-15T05:33:02.365Z,12.02
2022-09-15T05:35:29.463Z,11.18
2022-09-15T05:37:56.650Z,17.27
2022-09-15T05:40:23.842Z,19.30
2022-09-15T05:42:50.956Z,16.83
2022-09-15T05:45:18.137Z,20.23
2022-09-15T05:47:45.208Z,31.60
2022-09-15T05:50:12.423Z,26.00
2022-09-15T05:52:40.103Z,29.70
2022-09-15T05:55:07.315Z,30.00
2022-09-15T05:57:34.421Z,32.63
2022-09-15T06:00:01.526Z,35.63
2022-09-15T06:02:28.746Z,34.92
2022-09-15T06:04:55.887Z,37.53
2022-09-15T06:07:23.054Z,45.00
2022-09-15T06:09:50.179Z,43.55
2022-09-15T06:12:18.328Z,50.00
2022-09-15T06:14:47.147Z,54.20
2022-09-15T06:17:14.189Z,55.33
2022-09-15T06:19:41.261Z,56.97
2022-09-15T06:22:08.352Z,62.28
2022-09-15T06:24:35.493Z,58.85
2022-09-15T06:27:02.693Z,54.45
2022-09-15T06:29:31.648Z,59.20
2022-09-15T06:32:02.732Z,57.28
2022-09-15T06:34:30.059Z,59.20
2022-09-15T06:36:57.158Z,59.40
2022-09-15T06:39:24.591Z,65.72
2022-09-15T06:42:02.680Z,62.00
2022-09-15T06:44:30.938Z,61.75
2022-09-15T06:46:58.232Z,51.70
2022-09-15T06:49:25.945Z,47.78
2022-09-15T06:51:53.229Z,48.95
2022-09-15T06:54:20.414Z,38.70
2022-09-15T06:56:47.449Z,40.67
2022-09-15T06:59:15.303Z,37.08
2022-09-15T07:01:43.003Z,32.53
2022-09-15T07:04:10.354Z,37.72
2022-09-15T07:06:39.570Z,38.53
2022-09-15T07:09:07.013Z,44.67
2022-09-15T07:11:34.371Z,43.60
2022-09-15T07:14:01.668Z,45.25
2022-09-15T07:16:28.803Z,43.45
2022-09-15T07:19:01.929Z,45.95
2022-09-15T07:21:29.076Z,46.47
2022-09-15T07:24:02.711Z,42.67
2022-09-15T07:26:33.753Z,49.92
2022-09-15T07:29:01.925Z,44.30
2022-09-15T07:31:31.069Z,51.92
2022-09-15T07:33:59.418Z,40.53
2022-09-15T07:36:26.506Z,41.25
2022-09-15T07:38:53.689Z,39.83
2022-09-15T07:41:22.122Z,31.80
2022-09-15T07:43:50.110Z,29.58
2022-09-15T07:46:18.197Z,33.92
2022-09-15T07:48:49.253Z,30.95
2022-09-15T07:51:17.019Z,31.88
2022-09-15T07:53:45.002Z,34.70
2022-09-15T07:56:12.341Z,26.85
2022-09-15T07:58:39.528Z,34.05
2022-09-15T08:01:08.282Z,27.80
2022-09-15T08:03:35.460Z,26.83
2022-09-15T08:06:03.291Z,40.30
2022-09-15T08:08:30.530Z,26.75
2022-09-15T08:10:58.449Z,30.67
2022-09-15T08:13:25.731Z,28.83
2022-09-15T08:15:52.899Z,25.92
2022-09-15T08:18:20.014Z,26.50
2022-09-15T08:20:47.187Z,27.20
2022-09-15T08:23:14.301Z,23.10
2022-09-15T08:25:41.406Z,22.90
2022-09-15T08:28:08.532Z,29.98
2022-09-15T08:30:35.703Z,26.20
2022-09-15T08:33:02.784Z,18.00
2022-09-15T08:35:32.449Z,22.40
2022-09-15T08:37:59.520Z,25.15
2022-09-15T08:40:38.007Z,22.02
2022-09-15T08:43:12.385Z,20.55
2022-09-15T08:45:50.155Z,20.85
2022-09-15T08:48:18.140Z,18.27
2022-09-15T08:50:52.196Z,21.42
2022-09-15T08:53:19.832Z,17.45
2022-09-15T08:55:50.188Z,16.15
2022-09-15T08:58:18.762Z,22.90
2022-09-15T09:00:47.463Z,15.60
2022-09-15T09:03:33.385Z,16.40
2022-09-15T09:06:15.776Z,15.98
2022-09-15T09:08:52.133Z,12.63
2022-09-15T09:11:28.495Z,15.52
2022-09-15T09:13:59.023Z,11.48
2022-09-15T09:16:26.537Z,10.55
2022-09-15T09:18:56.846Z,11.45
2022-09-15T09:21:37.580Z,11.43
2022-09-15T09:24:17.128Z,12.10
2022-09-15T09:26:46.042Z,12.93
2022-09-15T09:29:15.921Z,8.60
2022-09-15T09:31:43.846Z,8.85
2022-09-15T09:34:10.927Z,8.25
2022-09-15T09:36:38.040Z,8.90
2022-09-15T09:39:05.224Z,9.32
2022-09-15T09:41:36.817Z,7.47
2022-09-15T09:44:05.036Z,6.95
2022-09-15T09:46:32.198Z,8.70
2022-09-15T09:49:18.103Z,5.80
2022-09-15T09:51:55.135Z,7.25
2022-09-15T09:54:25.133Z,3.83
2022-09-15T09:56:53.604Z,5.60
2022-09-15T09:59:33.521Z,6.53
2022-09-15T10:02:15.863Z,4.18
2022-09-15T10:04:44.311Z,5.07
2022-09-15T10:07:12.030Z,5.72
2022-09-15T10:09:39.285Z,9.45
2022-09-15T10:12:07.391Z,5.80
2022-09-15T10:14:45.381Z,4.38
2022-09-15T10:17:12.487Z,4.40
2022-09-15T10:19:53.165Z,4.70
2022-09-15T10:22:23.281Z,3.97
2022-09-15T10:24:50.491Z,3.28
2022-09-15T10:27:31.125Z,5.38
2022-09-15T10:30:17.267Z,10.43
2022-09-15T10:32:44.579Z,5.93
2022-09-15T10:35:11.741Z,8.45
2022-09-15T10:37:50.909Z,11.25
2022-09-15T10:40:20.992Z,7.72
2022-09-15T10:42:50.591Z,5.53
2022-09-15T10:45:18.263Z,5.53
2022-09-15T10:47:45.364Z,6.97
2022-09-15T10:50:19.256Z,7.45
2022-09-15T10:52:53.017Z,6.50
2022-09-15T10:55:32.097Z,11.15
2022-09-15T10:58:26.079Z,8.80
2022-09-15T11:01:12.028Z,8.00
2022-09-15T11:03:39.709Z,11.30
2022-09-15T11:06:25.386Z,11.68
2022-09-15T11:08:55.525Z,8.98
2022-09-15T11:11:25.398Z,7.03
2022-09-15T11:13:52.441Z,7.78
2022-09-15T11:16:34.854Z,9.10
2022-09-15T11:19:05.083Z,8.20
2022-09-15T11:21:34.946Z,9.43
2022-09-15T11:24:31.154Z,11.25
2022-09-15T11:27:01.141Z,13.35
2022-09-15T11:29:28.217Z,8.18
2022-09-15T11:32:04.202Z,7.40
2022-09-15T11:34:31.289Z,11.35
2022-09-15T11:37:04.647Z,10.85
2022-09-15T11:39:36.059Z,11.05
2022-09-15T11:42:12.351Z,10.95
2022-09-15T11:44:42.043Z,9.70
2022-09-15T11:47:23.332Z,8.15
2022-09-15T11:49:55.236Z,6.55
2022-09-15T11:52:30.563Z,7.90
2022-09-15T11:55:08.206Z,6.95
2022-09-15T11:57:42.409Z,7.22
2022-09-15T12:00:14.528Z,5.65
2022-09-15T12:02:49.716Z,9.82
2022-09-15T12:05:35.842Z,7.50
2022-09-15T12:08:21.681Z,7.15
2022-09-15T12:10:54.327Z,7.18
2022-09-15T12:13:22.749Z,10.45
2022-09-15T12:15:50.891Z,8.80
2022-09-15T12:18:38.956Z,8.13
2022-09-15T12:21:34.086Z,8.45
2022-09-15T12:24:07.913Z,9.98
2022-09-15T12:26:35.204Z,11.65
2022-09-15T12:29:03.325Z,9.10
2022-09-15T12:31:31.790Z,12.27
2022-09-15T12:34:01.759Z,9.02
2022-09-15T12:36:34.759Z,9.32
2022-09-15T12:39:02.658Z,8.65
2022-09-15T12:41:30.535Z,9.15
2022-09-15T12:44:13.224Z,9.00
2022-09-15T12:49:14.337Z,12.32
2022-09-15T12:51:49.441Z,8.93
2022-09-15T12:54:23.080Z,8.10
2022-09-15T12:56:52.862Z,9.82
2022-09-15T12:59:25.170Z,11.43
2022-09-15T13:01:52.728Z,11.02
2022-09-15T13:04:49.033Z,9.77
2022-09-15T13:07:16.077Z,9.82
2022-09-15T13:09:44.246Z,8.10
2022-09-15T13:12:15.644Z,8.10
2022-09-15T13:14:48.158Z,9.52
2022-09-15T13:17:17.643Z,6.82
2022-09-15T13:19:46.803Z,6.72
2022-09-15T13:22:18.533Z,8.02
2022-09-15T13:24:45.583Z,6.50
2022-09-15T13:27:14.117Z,7.78
2022-09-15T13:29:44.553Z,5.97
2022-09-15T13:32:23.441Z,9.05
2022-09-15T13:35:05.710Z,7.45
2022-09-15T13:38:21.793Z,7.22
2022-09-15T13:41:03.627Z,7.70
2022-09-15T13:43:37.352Z,10.32
2022-09-15T13:46:19.572Z,7.80
2022-09-15T13:48:57.740Z,9.18
2022-09-15T13:51:27.495Z,9.10
2022-09-15T13:53:54.662Z,6.63
2022-09-15T13:56:29.984Z,4.95
2022-09-15T13:59:13.403Z,5.43
2022-09-15T14:01:42.428Z,7.25
2022-09-15T14:04:12.874Z,7.25
2022-09-15T14:06:42.043Z,7.03
2022-09-15T14:09:17.368Z,3.53
2022-09-15T14:11:46.663Z,5.10
2022-09-15T14:14:28.931Z,3.67
2022-09-15T14:16:57.163Z,5.10
2022-09-15T14:19:41.452Z,4.65
2022-09-15T14:22:27.751Z,6.00
2022-09-15T14:24:55.875Z,4.05
2022-09-15T14:27:24.756Z,9.85
2022-09-15T14:29:57.635Z,5.68
2022-09-15T14:32:26.069Z,5.07
2022-09-15T14:34:53.822Z,5.85
2022-09-15T14:37:21.005Z,5.43
2022-09-15T14:39:54.677Z,6.65
2022-09-15T14:42:34.517Z,5.75
2022-09-15T14:48:02.367Z,3.67
2022-09-15T14:50:32.899Z,4.72
2022-09-15T14:53:06.900Z,6.03
2022-09-15T14:55:41.506Z,4.85
2022-09-15T14:58:14.615Z,5.13
2022-09-15T15:00:45.341Z,4.10
2022-09-15T15:03:23.754Z,5.25
2022-09-15T15:06:02.603Z,6.68
2022-09-15T15:08:56.234Z,6.55
2022-09-15T15:11:23.366Z,5.13
2022-09-15T15:13:52.088Z,5.00
2022-09-15T15:16:26.684Z,3.83
2022-09-15T15:18:56.178Z,4.63
2022-09-15T15:21:29.172Z,4.18
2022-09-15T15:23:56.472Z,2.97
2022-09-15T15:26:25.553Z,5.35
2022-09-15T15:28:52.656Z,3.75
2022-09-15T15:31:21.572Z,3.88
2022-09-15T15:33:53.832Z,4.18
2022-09-15T15:36:22.247Z,3.80
2022-09-15T15:38:54.019Z,4.57
2022-09-15T15:41:25.467Z,4.33
2022-09-15T15:44:00.146Z,3.45
2022-09-15T15:46:45.711Z,3.20
2022-09-15T15:49:13.568Z,2.63
2022-09-15T15:51:41.097Z,3.50
2022-09-15T15:54:08.215Z,3.55
2022-09-15T15:56:37.998Z,5.72
2022-09-15T15:59:05.739Z,5.15
2022-09-15T16:01:33.556Z,4.75
2022-09-15T16:04:00.817Z,7.03
2022-09-15T16:06:28.045Z,3.88
2022-09-15T16:08:58.083Z,4.00
2022-09-15T16:11:25.218Z,5.20
2022-09-15T16:13:52.654Z,3.50
2022-09-15T16:16:20.014Z,5.70
2022-09-15T16:18:47.498Z,4.10
2022-09-15T16:21:37.695Z,5.18
2022-09-15T16:24:05.814Z,7.03
2022-09-15T16:26:35.590Z,3.78
2022-09-15T16:29:02.864Z,5.03
2022-09-15T16:31:30.008Z,3.15
2022-09-15T16:33:57.132Z,3.88
2022-09-15T16:36:24.245Z,3.22
2022-09-15T16:38:51.405Z,3.75
2022-09-15T16:41:19.893Z,5.53
2022-09-15T16:43:47.568Z,2.85
2022-09-15T16:46:14.931Z,5.55
2022-09-15T16:48:43.080Z,4.25
2022-09-15T16:51:30.895Z,3.85
2022-09-15T16:53:58.925Z,6.57
2022-09-15T16:56:26.942Z,3.35
2022-09-15T16:58:59.477Z,4.18
2022-09-15T17:01:27.461Z,3.05
2022-09-15T17:03:54.655Z,3.05
2022-09-15T17:06:22.134Z,3.63
2022-09-15T17:08:49.470Z,6.18
2022-09-15T17:11:17.983Z,4.50
2022-09-15T17:13:45.698Z,2.80
2022-09-15T17:16:17.220Z,3.88
2022-09-15T17:18:44.339Z,4.95
2022-09-15T17:21:16.225Z,3.17
2022-09-15T17:23:44.895Z,5.45
2022-09-15T17:26:27.579Z,4.35
2022-09-15T17:28:58.307Z,4.75
2022-09-15T17:31:25.890Z,3.90
2022-09-15T17:33:53.255Z,4.78
2022-09-15T17:36:20.489Z,5.28
2022-09-15T17:38:50.380Z,7.72
2022-09-15T17:41:19.062Z,8.10
2022-09-15T17:43:46.735Z,7.10
2022-09-15T17:46:13.956Z,6.38
2022-09-15T17:48:41.147Z,10.88
2022-09-15T17:51:10.179Z,9.20
2022-09-15T17:53:37.377Z,4.95
2022-09-15T17:56:04.479Z,4.95
2022-09-15T17:58:31.855Z,6.18
2022-09-15T18:00:59.313Z,6.60
2022-09-15T18:03:27.758Z,7.78
2022-09-15T18:05:56.063Z,6.40
2022-09-15T18:08:23.415Z,7.63
2022-09-15T18:10:50.881Z,6.35
2022-09-15T18:13:22.299Z,5.93
2022-09-15T18:15:49.904Z,7.82
2022-09-15T18:18:18.166Z,9.00
2022-09-15T18:20:45.350Z,7.38
2022-09-15T18:23:17.058Z,6.22
2022-09-15T18:25:44.812Z,7.55
2022-09-15T18:28:12.108Z,8.27
2022-09-15T18:30:40.762Z,11.35
2022-09-15T18:33:08.590Z,6.40
2022-09-15T18:35:36.513Z,7.78
2022-09-15T18:38:04.017Z,7.40
2022-09-15T18:40:31.138Z,9.40
2022-09-15T18:42:58.820Z,6.38
2022-09-15T18:45:26.024Z,8.20
2022-09-15T18:47:54.226Z,14.65
2022-09-15T18:50:22.464Z,10.52
2022-09-15T18:52:50.048Z,10.30
2022-09-15T18:55:18.683Z,11.57
2022-09-15T18:57:45.934Z,11.48
2022-09-15T19:00:14.742Z,9.05
2022-09-15T19:02:41.947Z,10.77
2022-09-15T19:05:11.435Z,11.90
2022-09-15T19:07:39.314Z,10.85
2022-09-15T19:10:07.295Z,16.63
2022-09-15T19:12:36.221Z,13.13
2022-09-15T19:15:04.227Z,10.73
2022-09-15T19:17:31.389Z,11.90
2022-09-15T19:20:00.180Z,10.80
2022-09-15T19:22:28.372Z,10.65
2022-09-15T19:24:55.671Z,9.02
2022-09-15T19:27:22.995Z,8.43
2022-09-15T19:29:51.387Z,8.55
2022-09-15T19:32:18.972Z,9.38
2022-09-15T19:34:47.156Z,8.88
2022-09-15T19:37:18.887Z,13.88
2022-09-15T19:39:46.655Z,9.30
2022-09-15T19:44:47.775Z,11.90
2022-09-15T19:47:14.932Z,9.90
2022-09-15T19:49:42.019Z,10.40
2022-09-15T19:52:09.220Z,8.45
2022-09-15T19:54:36.366Z,13.32
2022-09-15T19:57:03.881Z,10.48
2022-09-15T19:59:32.025Z,12.23
2022-09-15T20:01:59.912Z,9.75
2022-09-15T20:04:27.717Z,11.50
2022-09-15T20:06:54.867Z,11.07
2022-09-15T20:09:22.026Z,12.90
2022-09-15T20:11:49.237Z,10.43
2022-09-15T20:14:16.387Z,9.75
2022-09-15T20:16:46.318Z,7.63
2022-09-15T20:19:13.567Z,9.23
2022-09-15T20:21:56.323Z,8.63
2022-09-15T20:24:23.835Z,9.82
2022-09-15T20:26:51.589Z,7.70
2022-09-15T20:29:18.940Z,9.75
2022-09-15T20:31:46.220Z,10.00
2022-09-15T20:34:13.573Z,8.60
2022-09-15T20:36:41.091Z,9.82
2022-09-15T20:39:10.413Z,7.75
2022-09-15T20:41:37.714Z,9.20
2022-09-15T20:44:08.986Z,6.53
2022-09-15T20:46:36.579Z,7.72
2022-09-15T20:49:15.218Z,7.57
2022-09-15T20:51:42.342Z,7.40
2022-09-15T20:54:10.875Z,7.63
2022-09-15T20:56:38.208Z,9.90
2022-09-15T20:59:06.407Z,5.55
2022-09-15T21:01:35.837Z,8.77
2022-09-15T21:04:03.194Z,7.80
2022-09-15T21:06:30.458Z,10.80
2022-09-15T21:08:58.530Z,7.10
2022-09-15T21:11:29.543Z,9.18
2022-09-15T21:13:57.481Z,9.63
2022-09-15T21:16:26.196Z,7.30
2022-09-15T21:18:53.637Z,6.53
2022-09-15T21:21:25.047Z,6.90
2022-09-15T21:23:52.130Z,6.35
2022-09-15T21:26:20.579Z,7.05
2022-09-15T21:28:48.720Z,7.05
2022-09-15T21:31:17.544Z,8.27
2022-09-15T21:33:45.394Z,6.28
2022-09-15T21:36:14.607Z,7.38
2022-09-15T21:38:43.846Z,8.05
2022-09-15T21:41:13.680Z,4.97
2022-09-15T21:43:41.606Z,7.30
2022-09-15T21:46:11.375Z,4.53
2022-09-15T21:48:38.499Z,7.68
2022-09-15T21:51:06.355Z,4.22
2022-09-15T21:53:34.857Z,8.13
2022-09-15T21:56:03.185Z,6.50
2022-09-15T21:58:39.027Z,3.17
2022-09-15T22:01:11.386Z,8.77
2022-09-15T22:03:41.757Z,4.85
2022-09-15T22:06:10.000Z,6.60
2022-09-15T22:08:37.671Z,4.85
2022-09-15T22:11:05.538Z,6.50
2022-09-15T22:13:32.674Z,6.95
2022-09-15T22:16:03.637Z,5.25
2022-09-15T22:18:30.826Z,4.45
2022-09-15T22:21:11.356Z,4.75
2022-09-15T22:23:38.623Z,6.35
2022-09-15T22:26:16.195Z,6.43
2022-09-15T22:28:43.359Z,3.60
2022-09-15T22:31:11.859Z,3.80
2022-09-15T22:33:42.382Z,9.65
2022-09-15T22:36:17.741Z,7.25
2022-09-15T22:38:44.751Z,6.53
2022-09-15T22:41:13.825Z,7.50
2022-09-15T22:43:42.013Z,4.55
2022-09-15T22:46:09.457Z,3.75
2022-09-15T22:48:40.982Z,5.35
2022-09-15T22:51:10.643Z,6.55
2022-09-15T22:53:37.383Z,10.05
2022-09-15T22:56:20.615Z,5.78
2022-09-15T22:58:48.768Z,5.88
2022-09-15T23:01:24.378Z,8.15
2022-09-15T23:03:59.692Z,5.07
2022-09-15T23:06:29.304Z,5.43
2022-09-15T23:08:58.387Z,4.40
2022-09-15T23:11:26.349Z,7.10
2022-09-15T23:13:54.042Z,4.15
2022-09-15T23:16:22.296Z,7.63
2022-09-15T23:18:49.310Z,4.55
2022-09-15T23:21:16.009Z,5.03
2022-09-15T23:23:46.826Z,5.00
2022-09-15T23:26:14.435Z,3.00
2022-09-15T23:28:41.579Z,4.25
2022-09-15T23:31:10.632Z,4.50
2022-09-15T23:33:37.290Z,6.82
2022-09-15T23:36:06.018Z,3.58
2022-09-15T23:38:36.025Z,4.95
2022-09-15T23:41:02.704Z,5.47
2022-09-15T23:43:29.426Z,2.38
2022-09-15T23:45:56.058Z,4.28
2022-09-15T23:48:23.355Z,2.83
2022-09-15T23:50:50.024Z,5.43
2022-09-15T23:53:17.198Z,4.63
2022-09-15T23:55:44.169Z,6.20
2022-09-15T23:58:11.687Z,7.82
